sensor_id;sensor_type;location;lat;lon;timestamp;P1;durP1;ratioP1;P2;durP2;ratioP2
45784;SDS011;31489;51.404;5.474;2023-11-21T00:01:02;9.70;;;7.50;;
45784;SDS011;31489;51.404;5.474;2023-11-21T00:03:29;13.43;;;7.82;;
45784;SDS011;31489;51.404;5.474;2023-11-21T00:05:55;11.80;;;7.70;;
45784;SDS011;31489;51.404;5.474;2023-11-21T00:08:21;11.55;;;7.97;;
45784;SDS011;31489;51.404;5.474;2023-11-21T00:10:47;9.63;;;7.38;;
45784;SDS011;31489;51.404;5.474;2023-11-21T00:13:13;15.05;;;8.10;;
45784;SDS011;31489;51.404;5.474;2023-11-21T00:15:39;13.90;;;7.75;;
45784;SDS011;31489;51.404;5.474;2023-11-21T00:18:05;11.13;;;7.68;;
45784;SDS011;31489;51.404;5.474;2023-11-21T00:20:31;12.15;;;8.48;;
45784;SDS011;31489;51.404;5.474;2023-11-21T00:22:57;11.73;;;8.07;;
45784;SDS011;31489;51.404;5.474;2023-11-21T00:25:22;13.95;;;8.60;;
45784;SDS011;31489;51.404;5.474;2023-11-21T00:27:48;12.43;;;7.78;;
45784;SDS011;31489;51.404;5.474;2023-11-21T00:30:14;11.05;;;7.80;;
45784;SDS011;31489;51.404;5.474;2023-11-21T00:32:39;12.75;;;7.65;;
45784;SDS011;31489;51.404;5.474;2023-11-21T00:35:05;13.70;;;8.52;;
45784;SDS011;31489;51.404;5.474;2023-11-21T00:37:31;10.18;;;8.00;;
45784;SDS011;31489;51.404;5.474;2023-11-21T00:39:57;11.07;;;7.93;;
45784;SDS011;31489;51.404;5.474;2023-11-21T00:42:23;10.05;;;7.65;;
45784;SDS011;31489;51.404;5.474;2023-11-21T00:44:48;9.80;;;7.43;;
45784;SDS011;31489;51.404;5.474;2023-11-21T00:47:14;10.60;;;7.75;;
45784;SDS011;31489;51.404;5.474;2023-11-21T00:49:39;12.85;;;8.07;;
45784;SDS011;31489;51.404;5.474;2023-11-21T00:52:06;11.35;;;7.60;;
45784;SDS011;31489;51.404;5.474;2023-11-21T00:54:32;11.32;;;7.82;;
45784;SDS011;31489;51.404;5.474;2023-11-21T00:56:58;13.20;;;7.50;;
45784;SDS011;31489;51.404;5.474;2023-11-21T00:59:24;10.10;;;7.07;;
45784;SDS011;31489;51.404;5.474;2023-11-21T01:01:50;9.77;;;7.90;;
45784;SDS011;31489;51.404;5.474;2023-11-21T01:04:15;13.55;;;7.63;;
45784;SDS011;31489;51.404;5.474;2023-11-21T01:06:41;11.18;;;7.55;;
45784;SDS011;31489;51.404;5.474;2023-11-21T01:09:06;10.63;;;6.97;;
45784;SDS011;31489;51.404;5.474;2023-11-21T01:11:34;12.57;;;7.05;;
45784;SDS011;31489;51.404;5.474;2023-11-21T01:14:02;10.30;;;7.45;;
45784;SDS011;31489;51.404;5.474;2023-11-21T01:16:28;11.20;;;7.18;;
45784;SDS011;31489;51.404;5.474;2023-11-21T01:18:54;9.93;;;7.32;;
45784;SDS011;31489;51.404;5.474;2023-11-21T01:21:19;10.52;;;7.50;;
45784;SDS011;31489;51.404;5.474;2023-11-21T01:23:45;8.57;;;6.80;;
45784;SDS011;31489;51.404;5.474;2023-11-21T01:26:12;8.23;;;7.00;;
45784;SDS011;31489;51.404;5.474;2023-11-21T01:28:38;10.75;;;7.30;;
45784;SDS011;31489;51.404;5.474;2023-11-21T01:31:03;11.95;;;6.80;;
45784;SDS011;31489;51.404;5.474;2023-11-21T01:33:29;9.43;;;6.90;;
45784;SDS011;31489;51.404;5.474;2023-11-21T01:35:55;11.73;;;6.88;;
45784;SDS011;31489;51.404;5.474;2023-11-21T01:38:21;11.43;;;7.18;;
45784;SDS011;31489;51.404;5.474;2023-11-21T01:40:47;11.70;;;6.95;;
45784;SDS011;31489;51.404;5.474;2023-11-21T01:43:13;8.65;;;6.72;;
45784;SDS011;31489;51.404;5.474;2023-11-21T01:45:38;10.68;;;6.63;;
45784;SDS011;31489;51.404;5.474;2023-11-21T01:48:04;9.82;;;6.80;;
45784;SDS011;31489;51.404;5.474;2023-11-21T01:50:31;11.02;;;7.05;;
45784;SDS011;31489;51.404;5.474;2023-11-21T01:52:58;8.25;;;6.22;;
45784;SDS011;31489;51.404;5.474;2023-11-21T01:55:25;9.23;;;6.68;;
45784;SDS011;31489;51.404;5.474;2023-11-21T01:57:52;8.68;;;7.00;;
45784;SDS011;31489;51.404;5.474;2023-11-21T02:00:18;9.50;;;7.35;;
45784;SDS011;31489;51.404;5.474;2023-11-21T02:02:44;9.65;;;6.43;;
45784;SDS011;31489;51.404;5.474;2023-11-21T02:05:11;9.50;;;7.47;;
45784;SDS011;31489;51.404;5.474;2023-11-21T02:07:38;10.95;;;8.48;;
45784;SDS011;31489;51.404;5.474;2023-11-21T02:10:05;11.90;;;8.68;;
45784;SDS011;31489;51.404;5.474;2023-11-21T02:12:32;26.15;;;10.70;;
45784;SDS011;31489;51.404;5.474;2023-11-21T02:14:58;21.25;;;8.57;;
45784;SDS011;31489;51.404;5.474;2023-11-21T02:17:23;16.70;;;8.55;;
45784;SDS011;31489;51.404;5.474;2023-11-21T02:19:49;16.25;;;9.80;;
45784;SDS011;31489;51.404;5.474;2023-11-21T02:22:16;26.80;;;10.05;;
45784;SDS011;31489;51.404;5.474;2023-11-21T02:24:43;30.48;;;11.15;;
45784;SDS011;31489;51.404;5.474;2023-11-21T02:27:10;53.33;;;11.50;;
45784;SDS011;31489;51.404;5.474;2023-11-21T02:29:37;36.75;;;11.57;;
45784;SDS011;31489;51.404;5.474;2023-11-21T02:32:03;44.35;;;11.68;;
45784;SDS011;31489;51.404;5.474;2023-11-21T02:34:29;32.75;;;12.02;;
45784;SDS011;31489;51.404;5.474;2023-11-21T02:36:54;46.20;;;11.55;;
45784;SDS011;31489;51.404;5.474;2023-11-21T02:39:20;34.20;;;11.82;;
45784;SDS011;31489;51.404;5.474;2023-11-21T02:41:47;67.78;;;11.75;;
45784;SDS011;31489;51.404;5.474;2023-11-21T02:44:13;74.10;;;11.10;;
45784;SDS011;31489;51.404;5.474;2023-11-21T02:46:38;51.58;;;10.65;;
45784;SDS011;31489;51.404;5.474;2023-11-21T02:49:05;32.60;;;9.32;;
45784;SDS011;31489;51.404;5.474;2023-11-21T02:51:31;54.03;;;10.57;;
45784;SDS011;31489;51.404;5.474;2023-11-21T02:53:57;42.90;;;10.23;;
45784;SDS011;31489;51.404;5.474;2023-11-21T02:56:25;49.50;;;10.27;;
45784;SDS011;31489;51.404;5.474;2023-11-21T02:58:57;69.65;;;10.90;;
45784;SDS011;31489;51.404;5.474;2023-11-21T03:01:24;40.90;;;9.75;;
45784;SDS011;31489;51.404;5.474;2023-11-21T03:03:50;54.78;;;9.30;;
45784;SDS011;31489;51.404;5.474;2023-11-21T03:06:17;48.63;;;9.38;;
45784;SDS011;31489;51.404;5.474;2023-11-21T03:08:43;37.20;;;10.32;;
45784;SDS011;31489;51.404;5.474;2023-11-21T03:11:09;56.00;;;10.65;;
45784;SDS011;31489;51.404;5.474;2023-11-21T03:13:34;74.63;;;9.88;;
45784;SDS011;31489;51.404;5.474;2023-11-21T03:16:00;53.00;;;10.18;;
45784;SDS011;31489;51.404;5.474;2023-11-21T03:18:26;116.80;;;11.60;;
45784;SDS011;31489;51.404;5.474;2023-11-21T03:20:54;60.45;;;9.75;;
45784;SDS011;31489;51.404;5.474;2023-11-21T03:23:20;32.50;;;9.73;;
45784;SDS011;31489;51.404;5.474;2023-11-21T03:25:45;43.90;;;9.70;;
45784;SDS011;31489;51.404;5.474;2023-11-21T03:28:11;55.17;;;10.35;;
45784;SDS011;31489;51.404;5.474;2023-11-21T03:30:37;55.55;;;10.30;;
45784;SDS011;31489;51.404;5.474;2023-11-21T03:33:02;80.93;;;10.48;;
45784;SDS011;31489;51.404;5.474;2023-11-21T03:35:28;45.33;;;10.52;;
45784;SDS011;31489;51.404;5.474;2023-11-21T03:37:53;44.25;;;9.20;;
45784;SDS011;31489;51.404;5.474;2023-11-21T03:40:19;46.83;;;9.88;;
45784;SDS011;31489;51.404;5.474;2023-11-21T03:42:46;40.90;;;10.00;;
45784;SDS011;31489;51.404;5.474;2023-11-21T03:45:12;42.42;;;10.95;;
45784;SDS011;31489;51.404;5.474;2023-11-21T03:47:38;58.53;;;10.63;;
45784;SDS011;31489;51.404;5.474;2023-11-21T03:50:04;19.13;;;9.88;;
45784;SDS011;31489;51.404;5.474;2023-11-21T03:52:30;49.10;;;8.98;;
45784;SDS011;31489;51.404;5.474;2023-11-21T03:54:56;43.33;;;9.25;;
45784;SDS011;31489;51.404;5.474;2023-11-21T03:57:21;64.45;;;9.20;;
45784;SDS011;31489;51.404;5.474;2023-11-21T03:59:47;43.08;;;9.30;;
45784;SDS011;31489;51.404;5.474;2023-11-21T04:02:12;22.20;;;8.88;;
45784;SDS011;31489;51.404;5.474;2023-11-21T04:04:38;48.38;;;9.18;;
45784;SDS011;31489;51.404;5.474;2023-11-21T04:07:04;32.38;;;8.68;;
45784;SDS011;31489;51.404;5.474;2023-11-21T04:09:30;49.00;;;9.00;;
45784;SDS011;31489;51.404;5.474;2023-11-21T04:11:55;48.28;;;9.20;;
45784;SDS011;31489;51.404;5.474;2023-11-21T04:14:21;25.98;;;9.45;;
45784;SDS011;31489;51.404;5.474;2023-11-21T04:16:47;22.90;;;8.57;;
45784;SDS011;31489;51.404;5.474;2023-11-21T04:19:13;54.30;;;9.45;;
45784;SDS011;31489;51.404;5.474;2023-11-21T04:21:42;49.03;;;9.68;;
45784;SDS011;31489;51.404;5.474;2023-11-21T04:24:08;26.70;;;8.80;;
45784;SDS011;31489;51.404;5.474;2023-11-21T04:26:34;45.47;;;9.23;;
45784;SDS011;31489;51.404;5.474;2023-11-21T04:29:00;24.73;;;8.48;;
45784;SDS011;31489;51.404;5.474;2023-11-21T04:31:25;22.27;;;9.15;;
45784;SDS011;31489;51.404;5.474;2023-11-21T04:33:51;29.13;;;8.60;;
45784;SDS011;31489;51.404;5.474;2023-11-21T04:36:16;31.50;;;8.93;;
45784;SDS011;31489;51.404;5.474;2023-11-21T04:38:42;45.97;;;9.27;;
45784;SDS011;31489;51.404;5.474;2023-11-21T04:41:08;27.67;;;8.65;;
45784;SDS011;31489;51.404;5.474;2023-11-21T04:43:33;21.38;;;9.60;;
45784;SDS011;31489;51.404;5.474;2023-11-21T04:45:59;46.40;;;8.88;;
45784;SDS011;31489;51.404;5.474;2023-11-21T04:48:25;47.00;;;9.68;;
45784;SDS011;31489;51.404;5.474;2023-11-21T04:50:50;54.15;;;9.68;;
45784;SDS011;31489;51.404;5.474;2023-11-21T04:53:16;26.58;;;9.35;;
45784;SDS011;31489;51.404;5.474;2023-11-21T04:55:42;19.38;;;8.80;;
45784;SDS011;31489;51.404;5.474;2023-11-21T04:58:08;27.35;;;9.10;;
45784;SDS011;31489;51.404;5.474;2023-11-21T05:00:34;45.28;;;9.32;;
45784;SDS011;31489;51.404;5.474;2023-11-21T05:03:01;25.65;;;9.18;;
45784;SDS011;31489;51.404;5.474;2023-11-21T05:05:28;11.80;;;9.07;;
45784;SDS011;31489;51.404;5.474;2023-11-21T05:07:54;25.38;;;9.40;;
45784;SDS011;31489;51.404;5.474;2023-11-21T05:10:20;25.60;;;8.75;;
45784;SDS011;31489;51.404;5.474;2023-11-21T05:12:47;16.77;;;9.23;;
45784;SDS011;31489;51.404;5.474;2023-11-21T05:15:15;22.98;;;8.95;;
45784;SDS011;31489;51.404;5.474;2023-11-21T05:17:42;11.38;;;8.60;;
45784;SDS011;31489;51.404;5.474;2023-11-21T05:20:12;12.25;;;9.23;;
45784;SDS011;31489;51.404;5.474;2023-11-21T05:22:41;10.38;;;9.35;;
45784;SDS011;31489;51.404;5.474;2023-11-21T05:25:07;10.90;;;9.35;;
45784;SDS011;31489;51.404;5.474;2023-11-21T05:27:33;9.75;;;8.75;;
45784;SDS011;31489;51.404;5.474;2023-11-21T05:30:00;15.45;;;9.05;;
45784;SDS011;31489;51.404;5.474;2023-11-21T05:32:27;11.20;;;8.90;;
45784;SDS011;31489;51.404;5.474;2023-11-21T05:34:53;10.57;;;8.82;;
45784;SDS011;31489;51.404;5.474;2023-11-21T05:37:18;12.25;;;9.77;;
45784;SDS011;31489;51.404;5.474;2023-11-21T05:39:44;14.65;;;10.60;;
45784;SDS011;31489;51.404;5.474;2023-11-21T05:42:09;11.98;;;9.65;;
45784;SDS011;31489;51.404;5.474;2023-11-21T05:44:36;12.75;;;9.65;;
45784;SDS011;31489;51.404;5.474;2023-11-21T05:47:06;12.93;;;9.88;;
45784;SDS011;31489;51.404;5.474;2023-11-21T05:49:32;16.33;;;9.23;;
45784;SDS011;31489;51.404;5.474;2023-11-21T05:51:58;10.57;;;8.88;;
45784;SDS011;31489;51.404;5.474;2023-11-21T05:54:24;10.13;;;8.50;;
45784;SDS011;31489;51.404;5.474;2023-11-21T05:56:51;10.63;;;8.82;;
45784;SDS011;31489;51.404;5.474;2023-11-21T05:59:16;9.90;;;8.88;;
45784;SDS011;31489;51.404;5.474;2023-11-21T06:01:42;10.30;;;8.98;;
45784;SDS011;31489;51.404;5.474;2023-11-21T06:04:08;9.60;;;8.25;;
45784;SDS011;31489;51.404;5.474;2023-11-21T06:06:34;8.95;;;7.82;;
45784;SDS011;31489;51.404;5.474;2023-11-21T06:09:00;8.77;;;7.78;;
45784;SDS011;31489;51.404;5.474;2023-11-21T06:11:26;10.23;;;8.10;;
45784;SDS011;31489;51.404;5.474;2023-11-21T06:13:51;9.18;;;7.88;;
45784;SDS011;31489;51.404;5.474;2023-11-21T06:16:18;12.05;;;9.05;;
45784;SDS011;31489;51.404;5.474;2023-11-21T06:18:45;9.73;;;8.73;;
45784;SDS011;31489;51.404;5.474;2023-11-21T06:21:11;9.90;;;8.68;;
45784;SDS011;31489;51.404;5.474;2023-11-21T06:23:37;10.75;;;8.77;;
45784;SDS011;31489;51.404;5.474;2023-11-21T06:26:03;12.38;;;9.65;;
45784;SDS011;31489;51.404;5.474;2023-11-21T06:28:29;9.60;;;8.52;;
45784;SDS011;31489;51.404;5.474;2023-11-21T06:30:55;11.07;;;8.23;;
45784;SDS011;31489;51.404;5.474;2023-11-21T06:33:23;15.60;;;9.38;;
45784;SDS011;31489;51.404;5.474;2023-11-21T06:35:48;10.10;;;8.60;;
45784;SDS011;31489;51.404;5.474;2023-11-21T06:38:14;14.57;;;8.80;;
45784;SDS011;31489;51.404;5.474;2023-11-21T06:40:40;14.07;;;10.10;;
45784;SDS011;31489;51.404;5.474;2023-11-21T06:43:06;16.60;;;9.70;;
45784;SDS011;31489;51.404;5.474;2023-11-21T06:45:32;18.25;;;10.90;;
45784;SDS011;31489;51.404;5.474;2023-11-21T06:47:59;16.85;;;10.40;;
45784;SDS011;31489;51.404;5.474;2023-11-21T06:50:25;13.27;;;9.73;;
45784;SDS011;31489;51.404;5.474;2023-11-21T06:52:50;20.85;;;11.05;;
45784;SDS011;31489;51.404;5.474;2023-11-21T06:55:16;20.48;;;10.07;;
45784;SDS011;31489;51.404;5.474;2023-11-21T06:57:42;24.60;;;11.27;;
45784;SDS011;31489;51.404;5.474;2023-11-21T07:00:08;26.30;;;11.25;;
45784;SDS011;31489;51.404;5.474;2023-11-21T07:02:34;20.13;;;10.85;;
45784;SDS011;31489;51.404;5.474;2023-11-21T07:05:00;22.10;;;11.52;;
45784;SDS011;31489;51.404;5.474;2023-11-21T07:07:26;22.02;;;11.45;;
45784;SDS011;31489;51.404;5.474;2023-11-21T07:09:52;23.73;;;11.77;;
45784;SDS011;31489;51.404;5.474;2023-11-21T07:12:18;29.30;;;12.55;;
45784;SDS011;31489;51.404;5.474;2023-11-21T07:14:44;27.65;;;12.32;;
45784;SDS011;31489;51.404;5.474;2023-11-21T07:17:10;27.77;;;12.75;;
45784;SDS011;31489;51.404;5.474;2023-11-21T07:19:40;27.20;;;13.07;;
45784;SDS011;31489;51.404;5.474;2023-11-21T07:22:06;26.15;;;12.32;;
45784;SDS011;31489;51.404;5.474;2023-11-21T07:24:33;27.60;;;13.07;;
45784;SDS011;31489;51.404;5.474;2023-11-21T07:26:59;36.08;;;13.45;;
45784;SDS011;31489;51.404;5.474;2023-11-21T07:29:25;30.85;;;14.07;;
45784;SDS011;31489;51.404;5.474;2023-11-21T07:31:52;32.55;;;13.25;;
45784;SDS011;31489;51.404;5.474;2023-11-21T07:34:18;24.42;;;13.02;;
45784;SDS011;31489;51.404;5.474;2023-11-21T07:36:45;32.75;;;13.52;;
45784;SDS011;31489;51.404;5.474;2023-11-21T07:39:11;34.15;;;13.38;;
45784;SDS011;31489;51.404;5.474;2023-11-21T07:41:36;32.95;;;14.98;;
45784;SDS011;31489;51.404;5.474;2023-11-21T07:44:04;28.95;;;13.82;;
45784;SDS011;31489;51.404;5.474;2023-11-21T07:46:30;30.17;;;13.23;;
45784;SDS011;31489;51.404;5.474;2023-11-21T07:48:55;28.35;;;13.55;;
45784;SDS011;31489;51.404;5.474;2023-11-21T07:51:21;27.83;;;13.65;;
45784;SDS011;31489;51.404;5.474;2023-11-21T07:53:47;27.13;;;14.10;;
45784;SDS011;31489;51.404;5.474;2023-11-21T07:56:12;29.10;;;13.75;;
45784;SDS011;31489;51.404;5.474;2023-11-21T07:58:38;30.55;;;14.07;;
45784;SDS011;31489;51.404;5.474;2023-11-21T08:01:04;34.92;;;15.48;;
45784;SDS011;31489;51.404;5.474;2023-11-21T08:03:30;31.63;;;13.60;;
45784;SDS011;31489;51.404;5.474;2023-11-21T08:05:59;28.65;;;14.48;;
45784;SDS011;31489;51.404;5.474;2023-11-21T08:08:25;32.70;;;15.20;;
45784;SDS011;31489;51.404;5.474;2023-11-21T08:10:51;27.60;;;14.60;;
45784;SDS011;31489;51.404;5.474;2023-11-21T08:13:24;28.13;;;14.18;;
45784;SDS011;31489;51.404;5.474;2023-11-21T08:15:53;29.98;;;14.38;;
45784;SDS011;31489;51.404;5.474;2023-11-21T08:18:19;29.17;;;14.70;;
45784;SDS011;31489;51.404;5.474;2023-11-21T08:20:45;27.88;;;15.75;;
45784;SDS011;31489;51.404;5.474;2023-11-21T08:23:14;29.25;;;14.25;;
45784;SDS011;31489;51.404;5.474;2023-11-21T08:25:42;34.15;;;16.40;;
45784;SDS011;31489;51.404;5.474;2023-11-21T08:28:08;31.17;;;16.20;;
45784;SDS011;31489;51.404;5.474;2023-11-21T08:30:34;30.95;;;15.45;;
45784;SDS011;31489;51.404;5.474;2023-11-21T08:33:00;28.90;;;15.30;;
45784;SDS011;31489;51.404;5.474;2023-11-21T08:35:25;35.08;;;17.02;;
45784;SDS011;31489;51.404;5.474;2023-11-21T08:37:51;32.97;;;16.52;;
45784;SDS011;31489;51.404;5.474;2023-11-21T08:40:20;25.20;;;15.05;;
45784;SDS011;31489;51.404;5.474;2023-11-21T08:42:47;31.65;;;17.90;;
45784;SDS011;31489;51.404;5.474;2023-11-21T08:45:14;32.20;;;16.63;;
45784;SDS011;31489;51.404;5.474;2023-11-21T08:47:40;29.13;;;15.85;;
45784;SDS011;31489;51.404;5.474;2023-11-21T08:50:06;28.23;;;16.20;;
45784;SDS011;31489;51.404;5.474;2023-11-21T08:52:33;29.67;;;14.60;;
45784;SDS011;31489;51.404;5.474;2023-11-21T08:54:59;32.83;;;17.23;;
45784;SDS011;31489;51.404;5.474;2023-11-21T08:57:28;26.83;;;16.48;;
45784;SDS011;31489;51.404;5.474;2023-11-21T08:59:54;32.08;;;17.08;;
45784;SDS011;31489;51.404;5.474;2023-11-21T09:02:22;34.05;;;17.25;;
45784;SDS011;31489;51.404;5.474;2023-11-21T09:04:51;29.42;;;17.38;;
45784;SDS011;31489;51.404;5.474;2023-11-21T09:07:17;31.52;;;16.30;;
45784;SDS011;31489;51.404;5.474;2023-11-21T09:09:45;30.92;;;17.02;;
45784;SDS011;31489;51.404;5.474;2023-11-21T09:12:14;32.72;;;17.77;;
45784;SDS011;31489;51.404;5.474;2023-11-21T09:14:42;29.67;;;17.23;;
45784;SDS011;31489;51.404;5.474;2023-11-21T09:17:09;29.00;;;18.05;;
45784;SDS011;31489;51.404;5.474;2023-11-21T09:19:39;33.28;;;17.83;;
45784;SDS011;31489;51.404;5.474;2023-11-21T09:22:05;35.13;;;17.63;;
45784;SDS011;31489;51.404;5.474;2023-11-21T09:24:32;33.63;;;18.58;;
45784;SDS011;31489;51.404;5.474;2023-11-21T09:26:58;32.03;;;17.88;;
45784;SDS011;31489;51.404;5.474;2023-11-21T09:29:25;33.33;;;18.42;;
45784;SDS011;31489;51.404;5.474;2023-11-21T09:31:54;35.70;;;18.35;;
45784;SDS011;31489;51.404;5.474;2023-11-21T09:34:20;33.83;;;18.75;;
45784;SDS011;31489;51.404;5.474;2023-11-21T09:36:46;30.92;;;18.88;;
45784;SDS011;31489;51.404;5.474;2023-11-21T09:39:12;30.75;;;18.50;;
45784;SDS011;31489;51.404;5.474;2023-11-21T09:41:43;30.73;;;18.25;;
45784;SDS011;31489;51.404;5.474;2023-11-21T09:44:14;35.13;;;19.20;;
45784;SDS011;31489;51.404;5.474;2023-11-21T09:46:55;32.78;;;18.88;;
45784;SDS011;31489;51.404;5.474;2023-11-21T09:49:24;34.67;;;19.45;;
45784;SDS011;31489;51.404;5.474;2023-11-21T09:51:53;32.55;;;19.67;;
45784;SDS011;31489;51.404;5.474;2023-11-21T09:54:21;31.92;;;19.65;;
45784;SDS011;31489;51.404;5.474;2023-11-21T09:56:47;38.25;;;20.35;;
45784;SDS011;31489;51.404;5.474;2023-11-21T09:59:15;36.65;;;20.13;;
45784;SDS011;31489;51.404;5.474;2023-11-21T10:01:41;35.15;;;18.85;;
45784;SDS011;31489;51.404;5.474;2023-11-21T10:04:11;32.47;;;18.90;;
45784;SDS011;31489;51.404;5.474;2023-11-21T10:06:40;37.22;;;19.05;;
45784;SDS011;31489;51.404;5.474;2023-11-21T10:09:08;35.70;;;20.70;;
45784;SDS011;31489;51.404;5.474;2023-11-21T10:11:37;35.50;;;19.30;;
45784;SDS011;31489;51.404;5.474;2023-11-21T10:14:07;33.70;;;20.23;;
45784;SDS011;31489;51.404;5.474;2023-11-21T10:16:35;33.05;;;19.90;;
45784;SDS011;31489;51.404;5.474;2023-11-21T10:19:03;34.70;;;19.30;;
45784;SDS011;31489;51.404;5.474;2023-11-21T10:21:31;35.90;;;19.23;;
45784;SDS011;31489;51.404;5.474;2023-11-21T10:23:58;37.30;;;20.23;;
45784;SDS011;31489;51.404;5.474;2023-11-21T10:26:24;32.20;;;19.60;;
45784;SDS011;31489;51.404;5.474;2023-11-21T10:28:59;35.05;;;19.75;;
45784;SDS011;31489;51.404;5.474;2023-11-21T10:31:28;28.05;;;18.17;;
45784;SDS011;31489;51.404;5.474;2023-11-21T10:34:17;29.08;;;17.25;;
45784;SDS011;31489;51.404;5.474;2023-11-21T10:36:44;33.13;;;17.90;;
45784;SDS011;31489;51.404;5.474;2023-11-21T10:39:14;32.85;;;18.13;;
45784;SDS011;31489;51.404;5.474;2023-11-21T10:41:45;30.05;;;17.77;;
45784;SDS011;31489;51.404;5.474;2023-11-21T10:44:13;30.90;;;18.83;;
45784;SDS011;31489;51.404;5.474;2023-11-21T10:46:49;28.55;;;17.38;;
45784;SDS011;31489;51.404;5.474;2023-11-21T10:49:19;27.70;;;16.83;;
45784;SDS011;31489;51.404;5.474;2023-11-21T10:51:45;26.30;;;16.15;;
45784;SDS011;31489;51.404;5.474;2023-11-21T10:54:16;26.35;;;16.52;;
45784;SDS011;31489;51.404;5.474;2023-11-21T10:56:43;21.95;;;14.63;;
45784;SDS011;31489;51.404;5.474;2023-11-21T10:59:10;24.30;;;15.75;;
45784;SDS011;31489;51.404;5.474;2023-11-21T11:01:40;23.13;;;14.30;;
45784;SDS011;31489;51.404;5.474;2023-11-21T11:04:10;26.73;;;15.07;;
45784;SDS011;31489;51.404;5.474;2023-11-21T11:06:45;23.75;;;13.88;;
45784;SDS011;31489;51.404;5.474;2023-11-21T11:09:16;21.95;;;14.23;;
45784;SDS011;31489;51.404;5.474;2023-11-21T11:11:42;28.20;;;16.48;;
45784;SDS011;31489;51.404;5.474;2023-11-21T11:14:11;21.38;;;13.27;;
45784;SDS011;31489;51.404;5.474;2023-11-21T11:16:38;24.00;;;12.88;;
45784;SDS011;31489;51.404;5.474;2023-11-21T11:19:06;21.27;;;12.55;;
45784;SDS011;31489;51.404;5.474;2023-11-21T11:30:08;22.60;;;13.35;;
45784;SDS011;31489;51.404;5.474;2023-11-21T11:35:14;21.85;;;13.98;;
45784;SDS011;31489;51.404;5.474;2023-11-21T11:37:49;18.67;;;12.80;;
45784;SDS011;31489;51.404;5.474;2023-11-21T11:40:15;19.58;;;12.30;;
45784;SDS011;31489;51.404;5.474;2023-11-21T11:42:55;19.30;;;12.38;;
45784;SDS011;31489;51.404;5.474;2023-11-21T11:45:22;22.20;;;13.52;;
45784;SDS011;31489;51.404;5.474;2023-11-21T11:47:56;19.52;;;12.50;;
45784;SDS011;31489;51.404;5.474;2023-11-21T11:50:22;22.08;;;14.18;;
45784;SDS011;31489;51.404;5.474;2023-11-21T11:52:50;17.63;;;12.50;;
45784;SDS011;31489;51.404;5.474;2023-11-21T11:55:18;19.48;;;11.90;;
45784;SDS011;31489;51.404;5.474;2023-11-21T11:57:46;17.20;;;13.10;;
45784;SDS011;31489;51.404;5.474;2023-11-21T12:00:32;19.15;;;11.88;;
45784;SDS011;31489;51.404;5.474;2023-11-21T12:03:02;17.02;;;11.40;;
45784;SDS011;31489;51.404;5.474;2023-11-21T12:05:31;17.25;;;11.32;;
45784;SDS011;31489;51.404;5.474;2023-11-21T12:07:59;16.73;;;11.38;;
45784;SDS011;31489;51.404;5.474;2023-11-21T12:10:27;14.93;;;10.02;;
45784;SDS011;31489;51.404;5.474;2023-11-21T12:12:57;16.52;;;9.73;;
45784;SDS011;31489;51.404;5.474;2023-11-21T12:15:24;14.50;;;10.07;;
45784;SDS011;31489;51.404;5.474;2023-11-21T12:17:50;15.10;;;9.65;;
45784;SDS011;31489;51.404;5.474;2023-11-21T12:20:21;16.25;;;10.68;;
45784;SDS011;31489;51.404;5.474;2023-11-21T12:22:51;15.57;;;9.77;;
45784;SDS011;31489;51.404;5.474;2023-11-21T12:25:22;15.75;;;10.27;;
45784;SDS011;31489;51.404;5.474;2023-11-21T12:27:56;16.42;;;10.50;;
45784;SDS011;31489;51.404;5.474;2023-11-21T12:30:27;14.73;;;10.27;;
45784;SDS011;31489;51.404;5.474;2023-11-21T12:32:56;22.23;;;10.63;;
45784;SDS011;31489;51.404;5.474;2023-11-21T12:35:27;14.57;;;9.98;;
45784;SDS011;31489;51.404;5.474;2023-11-21T12:37:59;16.27;;;9.98;;
45784;SDS011;31489;51.404;5.474;2023-11-21T12:40:27;17.65;;;11.82;;
45784;SDS011;31489;51.404;5.474;2023-11-21T12:42:55;16.67;;;11.13;;
45784;SDS011;31489;51.404;5.474;2023-11-21T12:45:23;17.80;;;10.75;;
45784;SDS011;31489;51.404;5.474;2023-11-21T12:47:56;17.48;;;10.48;;
45784;SDS011;31489;51.404;5.474;2023-11-21T12:50:25;15.30;;;11.43;;
45784;SDS011;31489;51.404;5.474;2023-11-21T12:53:00;14.93;;;10.02;;
45784;SDS011;31489;51.404;5.474;2023-11-21T12:55:29;17.80;;;10.30;;
45784;SDS011;31489;51.404;5.474;2023-11-21T12:57:56;20.30;;;11.77;;
45784;SDS011;31489;51.404;5.474;2023-11-21T13:00:31;15.85;;;11.60;;
45784;SDS011;31489;51.404;5.474;2023-11-21T13:02:59;16.55;;;11.02;;
45784;SDS011;31489;51.404;5.474;2023-11-21T13:07:52;16.85;;;12.32;;
45784;SDS011;31489;51.404;5.474;2023-11-21T13:10:20;17.85;;;12.55;;
45784;SDS011;31489;51.404;5.474;2023-11-21T13:12:51;16.55;;;11.70;;
45784;SDS011;31489;51.404;5.474;2023-11-21T13:15:17;15.27;;;10.80;;
45784;SDS011;31489;51.404;5.474;2023-11-21T13:17:43;15.57;;;10.82;;
45784;SDS011;31489;51.404;5.474;2023-11-21T13:20:10;19.15;;;11.90;;
45784;SDS011;31489;51.404;5.474;2023-11-21T13:23:06;15.73;;;11.82;;
45784;SDS011;31489;51.404;5.474;2023-11-21T13:25:32;21.85;;;12.35;;
45784;SDS011;31489;51.404;5.474;2023-11-21T13:27:58;16.35;;;12.07;;
45784;SDS011;31489;51.404;5.474;2023-11-21T13:30:25;17.15;;;11.65;;
45784;SDS011;31489;51.404;5.474;2023-11-21T13:32:55;16.58;;;11.05;;
45784;SDS011;31489;51.404;5.474;2023-11-21T13:35:22;16.25;;;11.98;;
45784;SDS011;31489;51.404;5.474;2023-11-21T13:38:03;18.10;;;12.43;;
45784;SDS011;31489;51.404;5.474;2023-11-21T13:40:31;17.67;;;11.77;;
45784;SDS011;31489;51.404;5.474;2023-11-21T13:43:02;19.40;;;12.48;;
45784;SDS011;31489;51.404;5.474;2023-11-21T13:45:30;19.25;;;12.50;;
45784;SDS011;31489;51.404;5.474;2023-11-21T13:47:56;17.02;;;12.05;;
45784;SDS011;31489;51.404;5.474;2023-11-21T13:50:28;18.33;;;11.60;;
45784;SDS011;31489;51.404;5.474;2023-11-21T13:55:41;13.55;;;10.18;;
45784;SDS011;31489;51.404;5.474;2023-11-21T13:58:07;14.48;;;11.05;;
45784;SDS011;31489;51.404;5.474;2023-11-21T14:00:36;14.27;;;9.88;;
45784;SDS011;31489;51.404;5.474;2023-11-21T14:03:12;15.00;;;10.43;;
45784;SDS011;31489;51.404;5.474;2023-11-21T14:05:46;13.75;;;10.43;;
45784;SDS011;31489;51.404;5.474;2023-11-21T14:08:17;12.85;;;10.15;;
45784;SDS011;31489;51.404;5.474;2023-11-21T14:10:53;11.70;;;9.30;;
45784;SDS011;31489;51.404;5.474;2023-11-21T14:13:23;12.73;;;9.75;;
45784;SDS011;31489;51.404;5.474;2023-11-21T14:15:49;12.35;;;9.98;;
45784;SDS011;31489;51.404;5.474;2023-11-21T14:18:22;14.35;;;10.00;;
45784;SDS011;31489;51.404;5.474;2023-11-21T14:20:55;13.73;;;11.02;;
45784;SDS011;31489;51.404;5.474;2023-11-21T14:23:21;12.57;;;9.70;;
45784;SDS011;31489;51.404;5.474;2023-11-21T14:25:48;13.73;;;11.15;;
45784;SDS011;31489;51.404;5.474;2023-11-21T14:28:15;14.77;;;11.25;;
45784;SDS011;31489;51.404;5.474;2023-11-21T14:30:41;17.52;;;12.60;;
45784;SDS011;31489;51.404;5.474;2023-11-21T14:33:07;15.55;;;12.63;;
45784;SDS011;31489;51.404;5.474;2023-11-21T14:35:35;17.20;;;12.20;;
45784;SDS011;31489;51.404;5.474;2023-11-21T14:38:01;17.83;;;12.95;;
45784;SDS011;31489;51.404;5.474;2023-11-21T14:40:30;16.83;;;13.38;;
45784;SDS011;31489;51.404;5.474;2023-11-21T14:42:59;16.58;;;12.57;;
45784;SDS011;31489;51.404;5.474;2023-11-21T14:45:25;19.50;;;13.25;;